createdAt,value
2022-11-14T00:00:16.079Z,8.42
2022-11-14T00:01:20.389Z,8.42
2022-11-14T00:02:24.425Z,8.41
2022-11-14T00:03:30.570Z,8.38
2022-11-14T00:04:37.024Z,8.37
2022-11-14T00:05:49.747Z,8.40
2022-11-14T00:06:54.407Z,8.42
2022-11-14T00:07:59.386Z,8.42
2022-11-14T00:09:05.902Z,8.41
2022-11-14T00:10:16.870Z,8.40
2022-11-14T00:11:21.690Z,8.38
2022-11-14T00:12:27.269Z,8.38
2022-11-14T00:13:34.557Z,8.36
2022-11-14T00:14:38.857Z,8.35
2022-11-14T00:15:43.181Z,8.35
2022-11-14T00:16:47.896Z,8.34
2022-11-14T00:17:51.457Z,8.36
2022-11-14T00:18:55.591Z,8.32
2022-11-14T00:20:00.756Z,8.30
2022-11-14T00:21:04.595Z,8.32
2022-11-14T00:22:08.955Z,8.32
2022-11-14T00:23:18.253Z,8.30
2022-11-14T00:24:22.086Z,8.31
2022-11-14T00:25:36.051Z,8.34
2022-11-14T00:26:40.592Z,8.32
2022-11-14T00:27:44.588Z,8.35
2022-11-14T00:28:49.249Z,8.29
2022-11-14T00:29:53.211Z,8.32
2022-11-14T00:30:56.723Z,8.33
2022-11-14T00:32:00.222Z,8.33
2022-11-14T00:33:04.113Z,8.36
2022-11-14T00:34:08.894Z,8.35
2022-11-14T00:35:12.438Z,8.32
2022-11-14T00:36:15.963Z,8.37
2022-11-14T00:37:19.414Z,8.37
2022-11-14T00:38:24.422Z,8.39
2022-11-14T00:39:28.879Z,8.37
2022-11-14T00:40:32.652Z,8.39
2022-11-14T00:41:36.514Z,8.37
2022-11-14T00:42:40.536Z,8.37
2022-11-14T00:43:45.212Z,8.40
2022-11-14T00:44:49.777Z,8.38
2022-11-14T00:45:53.683Z,8.36
2022-11-14T00:46:59.240Z,8.33
2022-11-14T00:48:03.860Z,8.26
2022-11-14T00:49:08.359Z,8.26
2022-11-14T00:50:13.033Z,8.25
2022-11-14T00:51:16.876Z,8.19
2022-11-14T00:52:21.665Z,8.18
2022-11-14T00:53:26.318Z,8.11
2022-11-14T00:54:31.917Z,8.12
2022-11-14T00:55:41.702Z,8.11
2022-11-14T00:56:46.716Z,8.09
2022-11-14T00:57:51.951Z,8.06
2022-11-14T00:58:55.545Z,8.08
2022-11-14T01:00:04.235Z,8.10
2022-11-14T01:01:10.030Z,8.10
2022-11-14T01:02:15.093Z,8.11
2022-11-14T01:03:19.918Z,8.13
2022-11-14T01:04:30.667Z,8.11
2022-11-14T01:05:44.809Z,8.11
2022-11-14T01:06:51.504Z,8.11
2022-11-14T01:08:01.056Z,8.10
2022-11-14T01:09:11.255Z,8.07
2022-11-14T01:10:17.516Z,8.09
2022-11-14T01:11:22.832Z,8.09
2022-11-14T01:12:26.344Z,8.08
2022-11-14T01:13:36.460Z,8.06
2022-11-14T01:14:41.603Z,8.06
2022-11-14T01:15:50.126Z,8.02
2022-11-14T01:16:54.177Z,7.93
2022-11-14T01:17:58.362Z,7.96
2022-11-14T01:19:04.337Z,7.96
2022-11-14T01:20:15.482Z,7.97
2022-11-14T01:21:22.620Z,7.98
2022-11-14T01:22:26.747Z,7.94
2022-11-14T01:23:30.332Z,7.94
2022-11-14T01:24:34.422Z,7.95
2022-11-14T01:25:40.787Z,8.01
2022-11-14T01:26:45.771Z,7.97
2022-11-14T01:27:49.591Z,7.98
2022-11-14T01:28:53.746Z,7.99
2022-11-14T01:29:57.684Z,7.97
2022-11-14T01:31:16.295Z,7.97
2022-11-14T01:32:19.958Z,7.99
2022-11-14T01:33:23.533Z,8.00
2022-11-14T01:34:27.625Z,7.98
2022-11-14T01:35:33.539Z,7.98
2022-11-14T01:36:38.404Z,7.99
2022-11-14T01:37:42.148Z,7.97
2022-11-14T01:38:46.624Z,7.94
2022-11-14T01:39:50.143Z,7.94
2022-11-14T01:40:53.932Z,7.95
2022-11-14T01:41:58.704Z,7.98
2022-11-14T01:43:17.731Z,7.94
2022-11-14T01:44:43.118Z,7.88
2022-11-14T01:45:59.663Z,7.92
2022-11-14T01:47:03.697Z,7.94
2022-11-14T01:48:25.195Z,7.91
2022-11-14T01:49:42.601Z,7.90
2022-11-14T01:50:51.933Z,7.93
2022-11-14T01:52:23.200Z,7.98
2022-11-14T01:53:28.463Z,8.01
2022-11-14T01:54:41.545Z,8.03
2022-11-14T01:55:45.902Z,8.06
2022-11-14T01:57:02.569Z,8.00
2022-11-14T01:58:06.909Z,8.00
2022-11-14T01:59:16.072Z,8.03
2022-11-14T02:00:19.679Z,7.98
2022-11-14T02:01:26.548Z,7.99
2022-11-14T02:02:35.693Z,7.96
2022-11-14T02:03:43.532Z,7.88
2022-11-14T02:04:55.764Z,7.88
2022-11-14T02:06:03.290Z,7.85
2022-11-14T02:07:08.568Z,7.85
2022-11-14T02:08:16.858Z,7.83
2022-11-14T02:09:20.488Z,7.78
2022-11-14T02:10:27.302Z,7.82
2022-11-14T02:11:37.168Z,7.83
2022-11-14T02:12:41.344Z,7.86
2022-11-14T02:13:45.355Z,7.80
2022-11-14T02:14:55.444Z,7.81
2022-11-14T02:15:59.182Z,7.76
2022-11-14T02:17:27.884Z,7.79
2022-11-14T02:18:26.999Z,7.81
2022-11-14T02:19:52.084Z,7.80
2022-11-14T02:20:55.616Z,7.76
2022-11-14T02:21:59.218Z,7.81
2022-11-14T02:23:06.071Z,7.82
2022-11-14T02:24:12.994Z,7.80
2022-11-14T02:25:19.732Z,7.78
2022-11-14T02:26:23.939Z,7.76
2022-11-14T02:27:28.062Z,7.77
2022-11-14T02:28:31.953Z,7.77
2022-11-14T02:29:36.735Z,7.77
2022-11-14T02:30:41.252Z,7.80
2022-11-14T02:31:44.741Z,7.82
2022-11-14T02:34:25.175Z,7.87
2022-11-14T02:35:30.476Z,7.87
2022-11-14T02:36:35.416Z,7.86
2022-11-14T02:37:40.874Z,7.87
2022-11-14T02:38:44.512Z,7.88
2022-11-14T02:39:48.472Z,7.89
2022-11-14T02:40:51.975Z,7.92
2022-11-14T02:41:55.846Z,7.88
2022-11-14T02:42:59.612Z,7.91
2022-11-14T02:44:03.363Z,7.94
2022-11-14T02:45:08.035Z,7.96
2022-11-14T02:46:11.843Z,7.94
2022-11-14T02:47:15.592Z,7.94
2022-11-14T02:48:19.458Z,7.97
2022-11-14T02:49:22.942Z,7.94
2022-11-14T02:50:26.551Z,7.92
2022-11-14T02:51:30.121Z,7.84
2022-11-14T02:52:34.050Z,7.80
2022-11-14T02:53:37.575Z,7.76
2022-11-14T02:54:41.097Z,7.77
2022-11-14T02:55:44.592Z,7.79
2022-11-14T02:56:48.657Z,7.79
2022-11-14T02:57:52.321Z,7.82
2022-11-14T02:58:56.002Z,7.77
2022-11-14T02:59:59.501Z,7.80
2022-11-14T04:12:38.080Z,7.67
2022-11-14T04:13:41.895Z,7.69
2022-11-14T04:14:45.590Z,7.73
2022-11-14T04:15:59.219Z,7.74
2022-11-14T04:17:02.812Z,7.71
2022-11-14T04:18:06.609Z,7.72
2022-11-14T04:19:10.408Z,7.74
2022-11-14T04:20:15.513Z,7.75
2022-11-14T04:21:19.007Z,7.74
2022-11-14T04:22:22.759Z,7.79
2022-11-14T04:23:26.580Z,7.83
2022-11-14T04:24:30.334Z,7.79
2022-11-14T04:25:34.020Z,7.75
2022-11-14T04:26:37.504Z,7.77
2022-11-14T04:27:41.103Z,7.73
2022-11-14T04:28:44.900Z,7.75
2022-11-14T04:29:48.623Z,7.66
2022-11-14T04:30:52.121Z,7.71
2022-11-14T04:31:55.619Z,7.72
2022-11-14T04:32:59.617Z,7.73
2022-11-14T04:34:03.432Z,7.72
2022-11-14T04:35:07.471Z,7.72
2022-11-14T04:36:11.170Z,7.75
2022-11-14T04:37:14.794Z,7.79
2022-11-14T04:38:18.332Z,7.75
2022-11-14T04:39:22.119Z,7.72
2022-11-14T04:40:25.835Z,7.68
2022-11-14T04:41:29.638Z,7.68
2022-11-14T04:42:33.564Z,7.63
2022-11-14T04:43:38.748Z,7.58
2022-11-14T04:44:43.215Z,7.55
2022-11-14T04:45:47.203Z,7.56
2022-11-14T04:46:51.873Z,7.59
2022-11-14T04:47:56.016Z,7.60
2022-11-14T04:49:00.336Z,7.61
2022-11-14T04:50:05.972Z,7.53
2022-11-14T04:51:11.267Z,7.51
2022-11-14T04:52:15.229Z,7.54
2022-11-14T04:53:19.138Z,7.56
2022-11-14T04:54:26.856Z,7.53
2022-11-14T04:55:31.528Z,7.59
2022-11-14T04:56:36.439Z,7.60
2022-11-14T04:57:40.080Z,7.62
2022-11-14T04:58:43.873Z,7.61
2022-11-14T04:59:48.366Z,7.60
2022-11-14T05:00:52.452Z,7.62
2022-11-14T05:01:56.618Z,7.64
2022-11-14T05:03:02.316Z,7.60
2022-11-14T05:04:06.802Z,7.58
2022-11-14T05:05:11.501Z,7.60
2022-11-14T05:06:17.019Z,7.64
2022-11-14T05:07:25.144Z,7.63
2022-11-14T05:08:29.486Z,7.67
2022-11-14T05:09:33.409Z,7.65
2022-11-14T05:10:37.366Z,7.70
2022-11-14T05:11:41.428Z,7.72
2022-11-14T05:12:46.370Z,7.75
2022-11-14T05:13:50.797Z,7.81
2022-11-14T05:14:55.159Z,7.85
2022-11-14T05:16:02.065Z,7.86
2022-11-14T05:17:09.188Z,7.89
2022-11-14T05:18:14.570Z,7.92
2022-11-14T05:19:18.375Z,7.92
2022-11-14T05:20:22.158Z,7.96
2022-11-14T05:21:26.317Z,7.92
2022-11-14T05:22:33.844Z,7.93
2022-11-14T05:23:37.343Z,7.91
2022-11-14T05:24:40.927Z,7.92
2022-11-14T05:25:44.496Z,7.90
2022-11-14T05:26:48.023Z,7.87
2022-11-14T05:27:52.264Z,7.81
2022-11-14T05:28:55.938Z,7.78
2022-11-14T05:29:59.817Z,7.71
2022-11-14T05:31:21.626Z,7.69
2022-11-14T05:32:25.209Z,7.67
2022-11-14T05:33:29.683Z,7.64
2022-11-14T05:34:33.670Z,7.64
2022-11-14T05:35:37.269Z,7.61
2022-11-14T05:36:40.805Z,7.58
2022-11-14T05:37:44.355Z,7.60
2022-11-14T05:38:48.100Z,7.61
2022-11-14T05:39:51.781Z,7.62
2022-11-14T05:40:55.386Z,7.62
2022-11-14T05:41:59.066Z,7.64
2022-11-14T05:43:02.525Z,7.64
2022-11-14T05:44:06.705Z,7.56
2022-11-14T05:45:12.832Z,7.53
2022-11-14T05:46:17.207Z,7.49
2022-11-14T05:47:21.323Z,7.52
2022-11-14T05:48:24.834Z,7.52
2022-11-14T05:49:28.550Z,7.47
2022-11-14T05:50:32.209Z,7.46
2022-11-14T05:51:35.762Z,7.46
2022-11-14T05:52:39.307Z,7.45
2022-11-14T05:53:42.849Z,7.41
2022-11-14T05:54:49.954Z,7.45
2022-11-14T05:55:54.045Z,7.45
2022-11-14T05:56:57.866Z,7.44
2022-11-14T05:58:01.710Z,7.45
2022-11-14T05:59:05.330Z,7.46
2022-11-14T06:00:11.134Z,7.44
2022-11-14T06:01:18.567Z,7.49
2022-11-14T06:02:22.369Z,7.49
2022-11-14T06:03:26.005Z,7.47
2022-11-14T06:04:29.976Z,7.41
2022-11-14T06:05:36.304Z,7.40
2022-11-14T06:06:41.748Z,7.36
2022-11-14T06:07:50.348Z,7.35
2022-11-14T06:08:54.291Z,7.38
2022-11-14T06:09:58.430Z,7.37
2022-11-14T06:11:06.044Z,7.35
2022-11-14T06:12:10.260Z,7.39
2022-11-14T06:13:14.069Z,7.35
2022-11-14T06:14:17.828Z,7.32
2022-11-14T06:15:21.928Z,7.34
2022-11-14T06:16:26.084Z,7.34
2022-11-14T06:17:29.846Z,7.29
2022-11-14T06:18:34.500Z,7.33
2022-11-14T06:19:38.089Z,7.32
2022-11-14T06:20:42.343Z,7.28
2022-11-14T06:21:46.880Z,7.18
2022-11-14T06:22:54.568Z,7.28
2022-11-14T06:23:58.034Z,7.29
2022-11-14T06:25:10.071Z,7.33
2022-11-14T06:26:24.792Z,7.35
2022-11-14T06:27:28.483Z,7.39
2022-11-14T06:28:33.044Z,7.38
2022-11-14T06:29:36.802Z,7.41
2022-11-14T06:30:41.585Z,7.39
2022-11-14T06:31:45.108Z,7.45
2022-11-14T06:32:48.900Z,7.45
2022-11-14T06:33:53.316Z,7.45
2022-11-14T06:34:57.208Z,7.43
2022-11-14T06:36:04.058Z,7.43
2022-11-14T06:37:07.562Z,7.43
2022-11-14T06:38:11.277Z,7.46
2022-11-14T06:39:15.383Z,7.49
2022-11-14T06:40:23.997Z,7.48
2022-11-14T06:41:31.496Z,7.44
2022-11-14T06:42:37.382Z,7.44
2022-11-14T06:43:54.301Z,7.47
2022-11-14T06:44:59.675Z,7.46
2022-11-14T06:46:06.259Z,7.48
2022-11-14T06:47:10.135Z,7.40
2022-11-14T06:48:13.708Z,7.42
2022-11-14T06:49:20.739Z,7.43
2022-11-14T06:50:32.879Z,7.42
2022-11-14T06:51:37.018Z,7.46
2022-11-14T06:52:44.382Z,7.47
2022-11-14T06:53:54.202Z,7.46
2022-11-14T06:55:00.405Z,7.46
2022-11-14T06:56:16.038Z,7.43
2022-11-14T06:57:26.896Z,7.39
2022-11-14T06:58:41.708Z,7.35
2022-11-14T06:59:48.579Z,7.32
2022-11-14T07:00:54.527Z,7.31
2022-11-14T07:01:58.359Z,7.34
2022-11-14T07:03:03.662Z,7.34
2022-11-14T07:04:11.011Z,7.27
2022-11-14T07:05:15.824Z,7.29
2022-11-14T07:06:30.618Z,7.34
2022-11-14T07:07:39.124Z,7.23
2022-11-14T07:08:44.406Z,7.23
2022-11-14T07:09:49.234Z,7.27
2022-11-14T07:10:54.171Z,7.25
2022-11-14T07:11:58.386Z,7.26
2022-11-14T07:13:04.952Z,7.29
2022-11-14T07:14:10.641Z,7.30
2022-11-14T07:15:15.722Z,7.29
2022-11-14T07:16:20.763Z,7.29
2022-11-14T07:17:29.877Z,7.32
2022-11-14T07:18:34.964Z,7.36
2022-11-14T07:19:39.057Z,7.34
2022-11-14T07:20:46.611Z,7.38
2022-11-14T07:21:52.674Z,7.40
2022-11-14T07:22:57.303Z,7.40
2022-11-14T07:24:01.351Z,7.40
2022-11-14T07:25:05.445Z,7.38
2022-11-14T07:26:12.042Z,7.36
2022-11-14T07:27:24.252Z,7.33
2022-11-14T07:28:29.657Z,7.30
2022-11-14T07:29:34.348Z,7.26
2022-11-14T07:30:37.943Z,7.31
2022-11-14T07:31:41.878Z,7.32
2022-11-14T07:32:46.046Z,7.33
2022-11-14T07:33:49.924Z,7.36
2022-11-14T07:34:57.858Z,7.38
2022-11-14T07:36:08.112Z,7.35
2022-11-14T07:37:24.844Z,7.38
2022-11-14T07:38:32.128Z,7.41
2022-11-14T07:39:38.087Z,7.39
2022-11-14T07:40:42.598Z,7.37
2022-11-14T07:41:46.432Z,7.44
2022-11-14T07:42:53.406Z,7.45
2022-11-14T07:43:58.488Z,7.46
2022-11-14T07:45:02.515Z,7.52
2022-11-14T07:46:16.021Z,7.58
2022-11-14T07:47:20.112Z,7.59
2022-11-14T07:48:23.764Z,7.63
2022-11-14T07:49:27.349Z,7.67
2022-11-14T07:50:34.220Z,7.64
2022-11-14T07:51:41.498Z,7.65
2022-11-14T07:52:56.033Z,7.61
2022-11-14T07:54:00.051Z,7.65
2022-11-14T07:55:05.183Z,7.64
2022-11-14T07:56:11.515Z,7.65
2022-11-14T07:57:16.078Z,7.67
2022-11-14T07:58:20.055Z,7.66
2022-11-14T07:59:23.619Z,7.71
2022-11-14T08:00:28.517Z,7.73
2022-11-14T08:01:35.308Z,7.73
2022-11-14T08:02:39.059Z,7.72
2022-11-14T08:03:46.514Z,7.74
2022-11-14T08:04:53.796Z,7.75
2022-11-14T08:06:17.859Z,7.76
2022-11-14T08:07:22.622Z,7.67
2022-11-14T08:08:29.333Z,7.53
2022-11-14T08:09:34.546Z,7.60
2022-11-14T08:10:38.745Z,7.63
2022-11-14T08:11:51.506Z,7.61
2022-11-14T08:13:30.394Z,7.60
2022-11-14T08:14:30.147Z,7.53
2022-11-14T08:15:43.330Z,7.52
2022-11-14T08:16:51.578Z,7.58
2022-11-14T08:18:03.014Z,7.62
2022-11-14T08:19:07.712Z,7.64
2022-11-14T08:20:12.006Z,7.67
2022-11-14T08:21:15.597Z,7.65
2022-11-14T08:22:19.088Z,7.69
2022-11-14T08:23:22.674Z,7.69
2022-11-14T08:24:26.173Z,7.74
2022-11-14T08:25:30.152Z,7.72
2022-11-14T08:26:34.503Z,7.73
2022-11-14T08:27:38.175Z,7.78
2022-11-14T08:28:41.742Z,7.82
2022-11-14T08:29:45.361Z,7.87
2022-11-14T08:30:49.085Z,7.82
2022-11-14T08:31:57.105Z,7.84
2022-11-14T08:33:06.056Z,7.85
2022-11-14T08:34:10.051Z,7.86
2022-11-14T08:35:14.084Z,7.89
2022-11-14T08:36:18.050Z,7.92
2022-11-14T08:37:22.408Z,7.90
2022-11-14T08:38:26.809Z,7.89
2022-11-14T08:39:30.577Z,7.90
2022-11-14T08:40:35.062Z,7.88
2022-11-14T08:41:40.297Z,7.91
2022-11-14T08:42:45.576Z,7.87
2022-11-14T08:43:51.969Z,7.88
2022-11-14T08:45:00.096Z,7.91
2022-11-14T08:46:06.794Z,7.89
2022-11-14T08:47:12.355Z,7.92
2022-11-14T08:48:17.805Z,7.93
2022-11-14T08:49:21.701Z,7.97
2022-11-14T08:50:25.669Z,7.98
2022-11-14T08:51:34.037Z,7.97
2022-11-14T08:52:41.025Z,7.89
2022-11-14T08:53:48.611Z,7.89
2022-11-14T08:55:14.383Z,7.88
2022-11-14T08:56:30.418Z,7.80
2022-11-14T08:57:37.414Z,7.84
2022-11-14T08:58:56.151Z,7.79
2022-11-14T09:00:06.462Z,7.79
2022-11-14T09:01:11.735Z,7.77
2022-11-14T09:02:15.887Z,7.69
2022-11-14T09:03:19.466Z,7.65
2022-11-14T09:04:26.617Z,7.68
2022-11-14T09:05:38.209Z,7.66
2022-11-14T09:06:42.928Z,7.61
2022-11-14T09:07:51.158Z,7.58
2022-11-14T09:09:00.392Z,7.64
2022-11-14T09:10:09.279Z,7.67
2022-11-14T09:11:19.054Z,7.72
2022-11-14T09:12:28.216Z,7.70
2022-11-14T09:13:36.608Z,7.65
2022-11-14T09:14:41.149Z,7.62
2022-11-14T09:15:46.430Z,7.62
2022-11-14T09:16:51.738Z,7.66
2022-11-14T09:17:58.987Z,7.67
2022-11-14T09:19:03.335Z,7.62
2022-11-14T09:20:11.809Z,7.62
2022-11-14T09:21:17.004Z,7.64
2022-11-14T09:22:25.257Z,7.66
2022-11-14T09:23:38.088Z,7.62
2022-11-14T09:24:46.964Z,7.67
2022-11-14T09:25:56.366Z,7.69
2022-11-14T09:27:02.444Z,7.67
2022-11-14T09:28:09.284Z,7.73
2022-11-14T09:29:14.497Z,7.75
2022-11-14T09:30:18.590Z,7.73
2022-11-14T09:31:22.567Z,7.77
2022-11-14T09:32:26.725Z,7.81
2022-11-14T09:33:31.444Z,7.75
2022-11-14T09:34:38.876Z,7.75
2022-11-14T09:35:45.892Z,7.81
2022-11-14T09:36:50.037Z,7.80
2022-11-14T09:38:15.706Z,7.85
2022-11-14T09:39:19.778Z,7.88
2022-11-14T09:40:23.330Z,7.85
2022-11-14T09:41:54.532Z,7.84
2022-11-14T09:43:39.946Z,7.78
2022-11-14T09:44:58.287Z,7.76
2022-11-14T09:46:04.278Z,7.70
2022-11-14T09:47:20.670Z,7.69
2022-11-14T09:48:31.982Z,7.70
2022-11-14T09:49:44.871Z,7.76
2022-11-14T09:51:10.782Z,7.66
2022-11-14T09:52:46.322Z,7.74
2022-11-14T09:54:25.118Z,7.78
2022-11-14T09:55:36.616Z,7.85
2022-11-14T09:56:43.749Z,7.87
2022-11-14T09:57:48.092Z,7.81
2022-11-14T09:58:56.642Z,7.84
2022-11-14T10:00:01.695Z,7.82
2022-11-14T10:01:54.026Z,7.80
2022-11-14T10:03:36.568Z,7.88
2022-11-14T10:05:31.796Z,7.92
2022-11-14T10:07:40.675Z,7.94
2022-11-14T10:09:31.881Z,7.92
2022-11-14T10:11:10.813Z,7.97
2022-11-14T10:12:23.223Z,7.98
2022-11-14T10:13:50.340Z,7.96
2022-11-14T10:15:01.738Z,7.95
2022-11-14T10:16:48.142Z,7.94
2022-11-14T10:18:09.306Z,7.83
2022-11-14T10:19:58.151Z,7.85
2022-11-14T10:21:28.722Z,7.93
2022-11-14T10:23:01.183Z,7.97
2022-11-14T10:24:44.854Z,8.00
2022-11-14T10:26:06.012Z,8.00
2022-11-14T10:27:41.625Z,8.01
2022-11-14T10:29:10.702Z,7.95
2022-11-14T10:30:20.197Z,7.93
2022-11-14T10:31:57.540Z,7.95
2022-11-14T10:33:32.312Z,7.94
2022-11-14T10:35:00.274Z,7.91
2022-11-14T10:36:49.292Z,7.85
2022-11-14T10:38:39.422Z,7.86
2022-11-14T10:40:04.044Z,7.76
2022-11-14T10:41:19.250Z,7.79
2022-11-14T10:42:53.497Z,7.81
2022-11-14T10:44:02.148Z,7.86
2022-11-14T10:45:33.746Z,7.81
2022-11-14T10:46:55.942Z,7.77
2022-11-14T10:48:36.734Z,7.66
2022-11-14T10:49:51.110Z,7.63
2022-11-14T10:51:08.791Z,7.53
2022-11-14T10:52:21.981Z,7.56
2022-11-14T10:54:16.002Z,7.51
2022-11-14T10:55:37.176Z,7.51
2022-11-14T10:56:56.506Z,7.49
2022-11-14T10:58:04.378Z,7.43
2022-11-14T10:59:27.082Z,7.43
2022-11-14T11:00:35.810Z,7.43
2022-11-14T11:01:55.035Z,7.46
2022-11-14T11:03:09.503Z,7.51
2022-11-14T11:04:37.174Z,7.51
2022-11-14T11:06:03.323Z,7.49
2022-11-14T11:07:10.392Z,7.55
2022-11-14T11:08:44.720Z,7.54
2022-11-14T11:10:24.818Z,7.48
2022-11-14T11:11:32.607Z,7.50
2022-11-14T11:12:54.473Z,7.44
2022-11-14T11:14:23.086Z,7.40
2022-11-14T11:16:21.263Z,7.44
2022-11-14T11:17:38.800Z,7.49
2022-11-14T11:18:48.563Z,7.54
2022-11-14T11:21:03.889Z,7.53
2022-11-14T11:22:38.903Z,7.44
2022-11-14T11:23:57.737Z,7.50
2022-11-14T11:25:01.454Z,7.52
2022-11-14T11:26:19.016Z,7.52
2022-11-14T11:27:29.707Z,7.57
2022-11-14T11:28:36.589Z,7.60
2022-11-14T11:29:40.335Z,7.64
2022-11-14T11:31:01.135Z,7.65
2022-11-14T11:32:05.682Z,7.65
2022-11-14T11:33:24.182Z,7.72
2022-11-14T11:34:32.884Z,7.76
2022-11-14T11:35:37.783Z,7.80
2022-11-14T11:36:54.395Z,7.78
2022-11-14T11:38:03.016Z,7.78
2022-11-14T11:39:17.596Z,7.80
2022-11-14T11:40:27.040Z,7.80
2022-11-14T11:42:09.244Z,7.82
2022-11-14T11:43:42.096Z,7.80
2022-11-14T11:44:54.167Z,7.83
2022-11-14T11:46:31.981Z,7.86
2022-11-14T11:47:43.623Z,7.87
2022-11-14T11:49:03.559Z,7.92
2022-11-14T11:50:21.451Z,7.97
2022-11-14T11:51:27.942Z,8.02
2022-11-14T11:53:12.299Z,8.08
2022-11-14T11:54:46.034Z,8.00
2022-11-14T11:56:28.882Z,7.98
2022-11-14T11:58:24.738Z,7.91
2022-11-14T11:59:59.382Z,7.96
2022-11-14T12:01:13.031Z,7.96
2022-11-14T12:02:31.836Z,7.99
2022-11-14T12:04:08.551Z,8.01
2022-11-14T12:05:46.529Z,8.05
2022-11-14T12:07:13.305Z,8.12
2022-11-14T12:08:59.784Z,8.16
2022-11-14T12:10:15.687Z,8.21
2022-11-14T12:11:25.502Z,8.17
2022-11-14T12:12:44.326Z,8.13
2022-11-14T12:14:15.797Z,8.08
2022-11-14T12:15:54.528Z,8.07
2022-11-14T12:17:20.415Z,8.03
2022-11-14T12:18:43.911Z,7.97
2022-11-14T12:20:51.344Z,8.02
2022-11-14T12:22:29.330Z,7.99
2022-11-14T12:23:51.160Z,7.99
2022-11-14T12:25:40.583Z,7.99
2022-11-14T12:27:06.254Z,8.04
2022-11-14T12:28:40.630Z,8.01
2022-11-14T12:30:14.382Z,8.05
2022-11-14T12:31:36.988Z,8.10
2022-11-14T12:32:56.030Z,8.04
2022-11-14T12:34:30.035Z,7.98
2022-11-14T12:35:37.306Z,8.01
2022-11-14T12:36:58.197Z,8.00
2022-11-14T12:38:21.001Z,8.06
2022-11-14T12:39:29.063Z,8.00
2022-11-14T12:40:34.214Z,8.01
2022-11-14T12:41:41.001Z,8.07
2022-11-14T12:44:33.803Z,8.11
2022-11-14T12:45:44.489Z,8.11
2022-11-14T12:47:09.687Z,8.17
2022-11-14T12:48:33.950Z,8.14
2022-11-14T12:49:52.827Z,8.13
2022-11-14T12:50:59.707Z,8.12
2022-11-14T12:52:03.560Z,8.17
2022-11-14T12:53:36.190Z,8.19
2022-11-14T12:54:49.590Z,8.21
2022-11-14T12:56:09.312Z,8.25
2022-11-14T12:57:50.288Z,8.22
2022-11-14T12:59:16.926Z,8.23
2022-11-14T13:00:24.192Z,8.14
2022-11-14T13:01:53.058Z,8.17
2022-11-14T13:03:48.432Z,8.21
2022-11-14T13:05:52.182Z,8.19
2022-11-14T13:07:31.317Z,8.19
2022-11-14T13:09:25.533Z,8.20
2022-11-14T13:10:44.488Z,8.14
2022-11-14T13:12:09.033Z,8.13
2022-11-14T13:13:36.347Z,8.11
2022-11-14T13:15:14.867Z,8.12
2022-11-14T13:16:49.334Z,8.08
2022-11-14T13:18:33.061Z,8.11
2022-11-14T13:20:05.945Z,8.08
2022-11-14T13:21:48.732Z,8.11
2022-11-14T13:22:52.448Z,8.11
2022-11-14T13:23:58.043Z,8.12
2022-11-14T13:25:06.131Z,8.14
2022-11-14T13:26:15.327Z,8.11
2022-11-14T13:28:06.000Z,8.17
2022-11-14T13:29:05.719Z,8.19
2022-11-14T13:30:09.962Z,8.21
2022-11-14T13:31:18.813Z,8.27
2022-11-14T13:32:47.741Z,8.30
2022-11-14T13:34:01.102Z,8.27
2022-11-14T13:37:17.685Z,8.33
2022-11-14T13:41:48.298Z,8.32
2022-11-14T13:43:17.822Z,8.35
2022-11-14T13:44:55.889Z,8.27
2022-11-14T13:46:22.532Z,8.27
2022-11-14T13:48:47.852Z,8.27
2022-11-14T13:51:48.732Z,8.35
2022-11-14T13:52:26.721Z,8.37
2022-11-14T13:53:43.483Z,8.39
2022-11-14T13:54:52.970Z,8.40
2022-11-14T13:56:26.997Z,8.44
2022-11-14T13:58:08.252Z,8.43
2022-11-14T13:59:41.688Z,8.44
2022-11-14T14:01:19.373Z,8.47
2022-11-14T14:02:53.387Z,8.43
2022-11-14T14:04:34.672Z,8.37
2022-11-14T14:05:47.199Z,8.37
2022-11-14T14:06:51.061Z,8.37
2022-11-14T14:08:33.865Z,8.35
2022-11-14T14:09:54.771Z,8.35
2022-11-14T14:11:42.839Z,8.32
2022-11-14T14:13:16.504Z,8.33
2022-11-14T14:14:42.312Z,8.22
2022-11-14T14:16:05.433Z,8.15
2022-11-14T14:17:20.047Z,8.17
2022-11-14T14:18:51.721Z,8.16
2022-11-14T14:20:36.871Z,8.16
2022-11-14T14:21:57.929Z,8.16
2022-11-14T14:23:37.356Z,8.15
2022-11-14T14:25:23.488Z,8.22
2022-11-14T14:27:35.687Z,8.21
2022-11-14T14:29:55.694Z,8.25
2022-11-14T14:31:28.035Z,8.24
2022-11-14T14:33:18.205Z,8.19
2022-11-14T14:34:31.828Z,8.18
2022-11-14T14:35:40.913Z,8.20
2022-11-14T14:36:55.476Z,8.23
2022-11-14T14:38:02.598Z,8.20
2022-11-14T14:39:28.615Z,8.16
2022-11-14T14:40:39.158Z,8.22
2022-11-14T14:41:50.897Z,8.17
2022-11-14T14:42:58.010Z,8.17
2022-11-14T14:44:02.412Z,8.18
2022-11-14T14:45:19.626Z,8.15
2022-11-14T14:46:34.258Z,8.09
2022-11-14T14:47:53.869Z,8.07
2022-11-14T14:49:06.748Z,8.08
2022-11-14T14:50:30.832Z,8.05
2022-11-14T14:51:43.602Z,8.06
2022-11-14T14:53:01.023Z,8.06
2022-11-14T14:54:08.134Z,8.03
2022-11-14T14:55:34.919Z,8.05
2022-11-14T14:56:40.861Z,8.01
2022-11-14T14:57:46.145Z,7.95
2022-11-14T14:58:50.342Z,7.98
2022-11-14T15:00:29.883Z,7.99
2022-11-14T15:01:37.206Z,8.04
2022-11-14T15:03:12.516Z,8.06
2022-11-14T15:04:37.658Z,8.12
2022-11-14T15:05:41.359Z,8.12
2022-11-14T15:07:06.138Z,8.14
2022-11-14T15:09:32.579Z,8.13
2022-11-14T15:10:39.056Z,8.18
2022-11-14T15:12:33.234Z,8.18
2022-11-14T15:14:05.561Z,8.17
2022-11-14T15:15:34.064Z,8.20
2022-11-14T15:18:29.534Z,8.24
2022-11-14T15:19:47.601Z,8.24
2022-11-14T15:21:39.090Z,8.26
2022-11-14T15:23:21.184Z,8.18
2022-11-14T15:24:25.414Z,8.20
2022-11-14T15:25:33.207Z,8.21
2022-11-14T15:26:49.533Z,8.24
2022-11-14T15:27:58.998Z,8.20
2022-11-14T15:29:43.864Z,8.24
2022-11-14T15:31:25.911Z,8.21
2022-11-14T15:32:30.386Z,8.26
2022-11-14T15:34:19.930Z,8.20
2022-11-14T15:35:25.974Z,8.20
2022-11-14T15:36:30.078Z,8.23
2022-11-14T15:37:34.586Z,8.24
2022-11-14T15:38:44.437Z,8.30
2022-11-14T15:39:49.634Z,8.31
2022-11-14T15:41:33.735Z,8.34
2022-11-14T15:42:38.960Z,8.38
2022-11-14T15:43:50.840Z,8.35
2022-11-14T15:44:55.020Z,8.36
2022-11-14T15:45:58.768Z,8.34
2022-11-14T15:47:04.333Z,8.35
2022-11-14T15:48:37.873Z,8.29
2022-11-14T15:50:09.626Z,8.24
2022-11-14T15:51:14.005Z,8.28
2022-11-14T15:52:31.067Z,8.27
2022-11-14T15:53:35.288Z,8.30
2022-11-14T15:54:42.307Z,8.31
2022-11-14T15:55:46.196Z,8.30
2022-11-14T15:56:50.429Z,8.33
2022-11-14T15:58:13.573Z,8.36
2022-11-14T15:59:19.148Z,8.32
2022-11-14T16:00:27.716Z,8.30
2022-11-14T16:01:33.683Z,8.33
2022-11-14T16:02:55.123Z,8.31
2022-11-14T16:03:59.470Z,8.28
2022-11-14T16:05:05.306Z,8.31
2022-11-14T16:06:11.341Z,8.32
2022-11-14T16:07:17.063Z,8.33
2022-11-14T16:08:21.288Z,8.33
2022-11-14T16:09:25.358Z,8.35
2022-11-14T16:10:29.205Z,8.38
2022-11-14T16:11:43.082Z,8.41
2022-11-14T16:12:58.556Z,8.43
2022-11-14T16:14:02.093Z,8.40
2022-11-14T16:15:06.184Z,8.40
2022-11-14T16:16:10.077Z,8.44
2022-11-14T16:17:18.622Z,8.38
2022-11-14T16:18:22.709Z,8.43
2022-11-14T16:19:26.509Z,8.44
2022-11-14T16:20:35.879Z,8.47
2022-11-14T16:21:40.429Z,8.48
2022-11-14T16:22:45.805Z,8.43
2022-11-14T16:23:50.524Z,8.44
2022-11-14T16:24:54.355Z,8.41
2022-11-14T16:26:01.129Z,8.43
2022-11-14T16:27:05.810Z,8.42
2022-11-14T16:28:09.739Z,8.42
2022-11-14T16:29:17.359Z,8.35
2022-11-14T16:30:24.390Z,8.38
2022-11-14T16:31:29.110Z,8.39
2022-11-14T16:32:36.820Z,8.37
2022-11-14T16:33:40.668Z,8.38
2022-11-14T16:34:44.269Z,8.35
2022-11-14T16:35:49.131Z,8.35
2022-11-14T16:37:01.663Z,8.35
2022-11-14T16:38:09.408Z,8.32
2022-11-14T16:39:21.364Z,8.39
2022-11-14T16:40:28.389Z,8.36
2022-11-14T16:41:37.129Z,8.37
2022-11-14T16:42:41.776Z,8.35
2022-11-14T16:43:46.479Z,8.37
2022-11-14T16:44:50.945Z,8.42
2022-11-14T16:45:54.743Z,8.40
2022-11-14T16:46:59.252Z,8.44
2022-11-14T16:48:03.309Z,8.46
2022-11-14T16:49:07.512Z,8.45
2022-11-14T16:50:36.303Z,8.48
2022-11-14T16:52:02.419Z,8.45
2022-11-14T16:53:14.536Z,8.41
2022-11-14T16:54:28.707Z,8.38
2022-11-14T16:55:41.108Z,8.33
2022-11-14T16:56:54.774Z,8.38
2022-11-14T16:58:16.560Z,8.38
2022-11-14T16:59:23.139Z,8.36
2022-11-14T17:00:37.488Z,8.35
2022-11-14T17:01:48.984Z,8.30
2022-11-14T17:03:04.741Z,8.28
2022-11-14T17:04:09.000Z,8.31
2022-11-14T17:05:13.320Z,8.28
2022-11-14T17:06:17.323Z,8.29
2022-11-14T17:07:27.596Z,8.25
2022-11-14T17:08:34.403Z,8.26
2022-11-14T17:09:42.520Z,8.27
2022-11-14T17:10:49.680Z,8.26
2022-11-14T17:12:10.566Z,8.25
2022-11-14T17:13:24.174Z,8.20
2022-11-14T17:14:32.567Z,8.16
2022-11-14T17:15:41.488Z,8.15
2022-11-14T17:18:38.640Z,8.19
2022-11-14T17:19:47.297Z,8.16
2022-11-14T17:20:54.479Z,8.19
2022-11-14T17:21:58.953Z,8.16
2022-11-14T17:23:11.472Z,8.15
2022-11-14T17:24:30.997Z,8.14
2022-11-14T17:25:41.802Z,8.10
2022-11-14T17:26:52.991Z,8.11
2022-11-14T17:27:57.144Z,8.13